Time;durP1;ratioP1;P1;durP2;ratioP2;P2;SDS_P1;SDS_P2;PMS_P1;PMS_P2;Temp;Humidity;BMP_temperature;BMP_pressure;BME280_temperature;BME280_humidity;BME280_pressure;Samples;Min_cycle;Max_cycle;Signal;HPM_P1;HPM_P2
2023/07/20 00:00:31;;;;;;;;;;;;;;;23.67;70.94;94966.94;5094911;28;1910;-56
2023/07/20 00:03:16;;;;;;;;;;;;;;;23.68;70.18;94956.88;5094759;28;1034;-56
2023/07/20 00:05:45;;;;;;;;;;;;;;;23.45;71.26;94961.41;5094760;28;1060;-56
2023/07/20 00:08:11;;;;;;;;;;;;;;;23.12;72.80;94956.69;5094750;28;961;-56
2023/07/20 00:10:37;;;;;;;;;;;;;;;22.68;74.59;94946.28;5094664;28;1024;-56
2023/07/20 00:13:03;;;;;;;;;;;;;;;22.85;73.86;94937.34;5094596;28;1037;-56
2023/07/20 00:15:29;;;;;;;;;;;;;;;22.88;74.49;94928.69;5094734;28;1065;-56
2023/07/20 00:17:55;;;;;;;;;;;;;;;22.97;73.91;94925.34;5094705;28;976;-56
2023/07/20 00:20:23;;;;;;;;;;;;;;;22.74;75.27;94928.16;5094281;28;1894;-56
2023/07/20 00:22:50;;;;;;;;;;;;;;;22.40;77.21;94928.84;5094530;28;984;-56
2023/07/20 00:25:17;;;;;;;;;;;;;;;22.38;77.34;94930.97;5094477;28;1131;-56
2023/07/20 00:27:43;;;;;;;;;;;;;;;22.55;76.37;94927.50;5094602;28;1020;-56
2023/07/20 00:30:09;;;;;;;;;;;;;;;22.42;77.23;94917.69;5094284;28;1104;-56
2023/07/20 00:32:35;;;;;;;;;;;;;;;22.30;77.95;94925.09;5094407;28;1044;-56
2023/07/20 00:35:01;;;;;;;;;;;;;;;22.32;77.03;94914.78;5094258;28;1045;-56
2023/07/20 00:37:27;;;;;;;;;;;;;;;22.37;76.39;94918.44;5094137;28;1076;-56
2023/07/20 00:39:53;;;;;;;;;;;;;;;22.35;76.97;94917.03;5094756;28;2004;-56
2023/07/20 00:42:19;;;;;;;;;;;;;;;22.08;78.52;94912.03;5094441;28;1043;-56
2023/07/20 00:44:45;;;;;;;;;;;;;;;22.00;78.97;94910.50;5093097;28;1032;-56
2023/07/20 00:47:11;;;;;;;;;;;;;;;21.78;79.57;94909.50;5094118;28;1012;-56
2023/07/20 00:49:37;;;;;;;;;;;;;;;21.61;80.92;94915.63;5094090;28;945;-56
2023/07/20 00:52:06;;;;;;;;;;;;;;;21.71;80.15;94909.59;5094006;28;969;-56
2023/07/20 00:54:32;;;;;;;;;;;;;;;21.92;78.96;94905.44;5094202;28;1059;-56
2023/07/20 00:56:58;;;;;;;;;;;;;;;22.03;78.19;94901.88;5093639;28;1008;-56
2023/07/20 00:59:25;;;;;;;;;;;;;;;22.05;77.85;94892.66;5093867;28;1032;-56
2023/07/20 01:01:51;;;;;;;;;;;;;;;21.92;78.73;94891.84;5092589;28;1980;-56
2023/07/20 01:04:17;;;;;;;;;;;;;;;21.76;79.11;94890.69;5093902;28;1259;-56
2023/07/20 01:06:49;;;;;;;;;;;;;;;21.88;78.32;94892.56;5093770;28;1036;-56
2023/07/20 01:09:19;;;;;;;;;;;;;;;21.96;78.58;94892.19;5093752;28;1065;-56
2023/07/20 01:12:03;;;;;;;;;;;;;;;21.83;78.50;94891.38;5093857;28;1047;-56
2023/07/20 01:14:29;;;;;;;;;;;;;;;21.42;80.31;94900.47;5093815;28;997;-56
2023/07/20 01:16:55;;;;;;;;;;;;;;;21.49;80.65;94898.47;5093643;28;1037;-56
2023/07/20 01:19:21;;;;;;;;;;;;;;;21.55;79.92;94894.81;5093518;28;1214;-56
2023/07/20 01:21:59;;;;;;;;;;;;;;;21.43;80.38;94891.22;5093758;28;1974;-56
2023/07/20 01:24:35;;;;;;;;;;;;;;;21.56;80.49;94885.59;5093587;28;1049;-56
2023/07/20 01:27:01;;;;;;;;;;;;;;;21.49;80.46;94889.47;5093712;28;1032;-56
2023/07/20 01:29:27;;;;;;;;;;;;;;;21.51;79.89;94877.28;5093531;28;1032;-56
2023/07/20 01:31:54;;;;;;;;;;;;;;;21.39;79.85;94874.53;5093516;28;1060;-56
2023/07/20 01:34:22;;;;;;;;;;;;;;;21.14;81.67;94874.75;5093723;28;1019;-56
2023/07/20 01:36:50;;;;;;;;;;;;;;;21.28;80.05;94872.63;5093440;28;1127;-55
2023/07/20 01:39:16;;;;;;;;;;;;;;;21.39;79.97;94879.16;5093629;28;1044;-56
2023/07/20 01:41:42;;;;;;;;;;;;;;;21.43;79.35;94883.88;5093501;28;1901;-56
2023/07/20 01:44:08;;;;;;;;;;;;;;;21.39;78.52;94884.59;5093372;28;1040;-56
2023/07/20 01:46:34;;;;;;;;;;;;;;;21.00;81.78;94876.00;5093335;28;1033;-56
2023/07/20 01:49:00;;;;;;;;;;;;;;;20.83;82.57;94875.84;5092186;28;1101;-56
2023/07/20 01:51:26;;;;;;;;;;;;;;;20.98;81.88;94872.69;5093515;28;1027;-56
2023/07/20 01:53:52;;;;;;;;;;;;;;;21.34;79.04;94876.31;5093416;28;1047;-56
2023/07/20 01:56:18;;;;;;;;;;;;;;;21.28;80.01;94875.34;5093283;28;1056;-56
2023/07/20 01:58:44;;;;;;;;;;;;;;;21.17;80.35;94879.72;5093311;28;1060;-56
2023/07/20 02:01:10;;;;;;;;;;;;;;;20.83;82.03;94876.69;5093101;28;1902;-56
2023/07/20 02:03:36;;;;;;;;;;;;;;;20.86;82.47;94867.25;5093393;28;969;-56
2023/07/20 02:06:02;;;;;;;;;;;;;;;21.01;81.67;94873.06;5093347;28;1013;-56
2023/07/20 02:08:28;;;;;;;;;;;;;;;20.85;82.40;94873.75;5093554;28;1060;-55
2023/07/20 02:10:54;;;;;;;;;;;;;;;20.77;83.30;94880.34;5097121;28;1111;-55
2023/07/20 02:13:20;;;;;;;;;;;;;;;20.84;82.74;94877.50;5097062;28;1033;-55
2023/07/20 02:15:49;;;;;;;;;;;;;;;20.84;82.49;94870.19;5096883;28;1121;-55
2023/07/20 02:18:15;;;;;;;;;;;;;;;20.92;82.34;94870.91;5097157;28;1043;-55
2023/07/20 02:20:41;;;;;;;;;;;;;;;20.81;83.19;94873.38;5096664;28;1906;-55
2023/07/20 02:23:08;;;;;;;;;;;;;;;20.71;83.46;94883.16;5096836;28;1668;-55
2023/07/20 02:25:34;;;;;;;;;;;;;;;20.69;84.00;94879.84;5096852;28;1031;-55
2023/07/20 02:27:59;;;;;;;;;;;;;;;20.38;84.71;94871.66;5096708;28;1101;-55
2023/07/20 02:30:27;;;;;;;;;;;;;;;20.38;85.48;94868.13;5096625;28;1025;-55
2023/07/20 02:32:53;;;;;;;;;;;;;;;20.41;84.89;94865.78;5096845;28;1035;-55
2023/07/20 02:35:19;;;;;;;;;;;;;;;20.22;85.12;94861.41;5096768;28;972;-55
2023/07/20 02:37:45;;;;;;;;;;;;;;;20.24;85.89;94868.28;5096682;28;1075;-55
2023/07/20 02:40:11;;;;;;;;;;;;;;;20.35;84.96;94861.22;5096544;28;1989;-55
2023/07/20 02:42:37;;;;;;;;;;;;;;;20.42;84.96;94866.59;5096436;28;1095;-56
2023/07/20 02:45:04;;;;;;;;;;;;;;;20.39;84.92;94859.72;5096376;28;1003;-55
2023/07/20 02:47:30;;;;;;;;;;;;;;;20.31;85.24;94856.50;5096585;28;1044;-55
2023/07/20 02:49:56;;;;;;;;;;;;;;;20.24;85.65;94848.44;5096512;28;1004;-55
2023/07/20 02:52:23;;;;;;;;;;;;;;;20.11;85.70;94854.03;5096445;28;984;-56
2023/07/20 02:54:49;;;;;;;;;;;;;;;20.09;86.05;94855.09;5096199;28;1029;-55
2023/07/20 02:57:15;;;;;;;;;;;;;;;20.14;85.55;94851.69;5096185;28;980;-56
2023/07/20 02:59:41;;;;;;;;;;;;;;;20.04;86.22;94854.94;5096012;28;921;-56
2023/07/20 03:02:09;;;;;;;;;;;;;;;19.95;86.33;94852.78;5096198;28;1905;-55
2023/07/20 03:04:36;;;;;;;;;;;;;;;19.83;86.90;94858.94;5096209;28;1008;-55
2023/07/20 03:07:04;;;;;;;;;;;;;;;19.73;87.19;94846.97;5096064;28;1056;-56
2023/07/20 03:09:30;;;;;;;;;;;;;;;19.91;86.78;94844.25;5096025;28;986;-56
2023/07/20 03:11:56;;;;;;;;;;;;;;;19.96;86.99;94851.72;5095958;28;992;-55
2023/07/20 03:14:23;;;;;;;;;;;;;;;19.86;87.20;94860.38;5095755;28;1035;-56
2023/07/20 03:16:49;;;;;;;;;;;;;;;19.77;87.74;94865.28;5095990;28;1077;-56
2023/07/20 03:19:15;;;;;;;;;;;;;;;19.64;87.78;94879.78;5095407;28;1077;-56
2023/07/20 03:21:42;;;;;;;;;;;;;;;19.73;88.26;94885.78;5095683;28;1910;-56
2023/07/20 03:24:08;;;;;;;;;;;;;;;19.90;86.36;94886.03;5095603;28;1092;-55
2023/07/20 03:26:34;;;;;;;;;;;;;;;19.80;86.14;94885.69;5095658;28;1032;-56
2023/07/20 03:29:01;;;;;;;;;;;;;;;19.78;87.16;94887.81;5095488;28;1029;-56
2023/07/20 03:31:27;;;;;;;;;;;;;;;19.79;87.06;94876.75;5095727;28;1143;-56
2023/07/20 03:33:53;;;;;;;;;;;;;;;20.05;85.71;94875.63;5095619;28;1044;-56
2023/07/20 03:36:19;;;;;;;;;;;;;;;20.25;84.93;94869.09;5095532;28;1055;-55
2023/07/20 03:38:45;;;;;;;;;;;;;;;20.07;85.42;94883.50;5095490;28;1139;-56
2023/07/20 03:41:11;;;;;;;;;;;;;;;19.83;86.34;94877.13;5093999;28;2000;-56
2023/07/20 03:43:37;;;;;;;;;;;;;;;19.52;89.34;94865.31;5095264;28;973;-56
2023/07/20 03:46:06;;;;;;;;;;;;;;;19.35;89.47;94869.63;5095396;28;1036;-56
2023/07/20 03:48:33;;;;;;;;;;;;;;;19.50;89.35;94873.66;5095358;28;1040;-55
2023/07/20 03:51:00;;;;;;;;;;;;;;;19.61;89.04;94871.25;5095247;28;962;-55
2023/07/20 03:53:26;;;;;;;;;;;;;;;19.77;87.94;94872.56;5095014;28;1037;-56
2023/07/20 03:55:52;;;;;;;;;;;;;;;19.85;88.60;94869.59;5095067;28;1060;-55
2023/07/20 03:58:19;;;;;;;;;;;;;;;20.15;86.80;94863.41;5094939;28;1049;-55
2023/07/20 04:00:50;;;;;;;;;;;;;;;20.37;86.05;94858.28;5095038;28;1914;-55
2023/07/20 04:03:16;;;;;;;;;;;;;;;20.58;84.72;94867.81;5094909;28;999;-55
2023/07/20 04:05:43;;;;;;;;;;;;;;;20.65;86.34;94872.13;5094814;28;1040;-55
2023/07/20 04:08:10;;;;;;;;;;;;;;;20.71;84.94;94858.69;5094773;28;1041;-56
2023/07/20 04:10:37;;;;;;;;;;;;;;;20.86;84.51;94857.19;5094709;28;1068;-56
2023/07/20 04:13:03;;;;;;;;;;;;;;;21.08;83.38;94864.81;5094908;28;1051;-57
2023/07/20 04:15:29;;;;;;;;;;;;;;;21.26;82.11;94862.00;5094906;28;1048;-56
2023/07/20 04:17:56;;;;;;;;;;;;;;;21.37;82.53;94860.34;5094920;28;1047;-56
2023/07/20 04:20:22;;;;;;;;;;;;;;;21.12;84.95;94873.34;5094264;28;1910;-56
2023/07/20 04:22:49;;;;;;;;;;;;;;;21.34;83.26;94884.47;5094648;28;1047;-57
2023/07/20 04:25:16;;;;;;;;;;;;;;;21.60;81.61;94873.16;5094501;28;1022;-55
2023/07/20 04:27:41;;;;;;;;;;;;;;;21.70;82.44;94869.03;5094476;28;1278;-55
2023/07/20 04:30:08;;;;;;;;;;;;;;;21.83;80.35;94874.22;5094631;28;1236;-55
2023/07/20 04:32:34;;;;;;;;;;;;;;;21.78;81.35;94871.41;5093745;28;961;-56
2023/07/20 04:35:00;;;;;;;;;;;;;;;21.91;79.98;94864.84;5094282;28;1116;-55
2023/07/20 04:37:26;;;;;;;;;;;;;;;22.14;78.15;94874.88;5094267;28;1044;-56
2023/07/20 04:39:52;;;;;;;;;;;;;;;22.21;79.40;94878.28;5094104;28;1995;-56
2023/07/20 04:42:20;;;;;;;;;;;;;;;22.17;80.11;94880.66;5094126;28;1052;-56
2023/07/20 04:44:46;;;;;;;;;;;;;;;22.32;79.11;94877.47;5094392;28;1051;-56
2023/07/20 04:47:12;;;;;;;;;;;;;;;22.37;78.16;94879.47;5094211;28;960;-56
2023/07/20 04:49:38;;;;;;;;;;;;;;;22.39;76.69;94880.88;5092841;28;1179;-56
2023/07/20 04:52:04;;;;;;;;;;;;;;;22.54;77.53;94871.38;5094106;28;1290;-56
2023/07/20 04:54:30;;;;;;;;;;;;;;;22.52;75.69;94876.22;5093929;28;1089;-56
2023/07/20 04:56:56;;;;;;;;;;;;;;;22.59;76.57;94871.44;5092692;28;1050;-57
2023/07/20 04:59:22;;;;;;;;;;;;;;;22.66;74.82;94872.16;5094172;28;1028;-56
2023/07/20 05:01:48;;;;;;;;;;;;;;;22.83;74.51;94877.63;5093964;28;1910;-56
2023/07/20 05:04:14;;;;;;;;;;;;;;;22.81;75.02;94877.06;5093952;28;981;-56
2023/07/20 05:06:40;;;;;;;;;;;;;;;22.99;73.45;94876.84;5093846;28;1035;-56
2023/07/20 05:09:09;;;;;;;;;;;;;;;23.15;75.79;94885.31;5092625;28;1005;-56
2023/07/20 05:11:35;;;;;;;;;;;;;;;23.06;72.40;94882.16;5093654;28;1096;-56
2023/07/20 05:14:01;;;;;;;;;;;;;;;23.23;72.96;94875.91;5093943;28;1116;-56
2023/07/20 05:16:27;;;;;;;;;;;;;;;23.21;73.95;94876.16;5093797;28;1035;-56
2023/07/20 05:18:53;;;;;;;;;;;;;;;23.37;72.41;94882.69;5093630;28;1128;-56
2023/07/20 05:21:19;;;;;;;;;;;;;;;23.58;73.01;94890.13;5093420;28;1913;-56
2023/07/20 05:23:45;;;;;;;;;;;;;;;23.69;72.04;94884.81;5093545;28;1041;-56
2023/07/20 05:26:11;;;;;;;;;;;;;;;23.78;71.81;94892.38;5093315;28;1036;-56
2023/07/20 05:28:37;;;;;;;;;;;;;;;24.04;71.98;94886.47;5093710;28;969;-56
2023/07/20 05:31:03;;;;;;;;;;;;;;;24.17;67.63;94900.56;5093741;28;1008;-56
2023/07/20 05:33:29;;;;;;;;;;;;;;;24.17;68.00;94892.38;5093447;28;1026;-56
2023/07/20 05:35:55;;;;;;;;;;;;;;;24.24;67.54;94881.25;5093521;28;1040;-55
2023/07/20 05:38:21;;;;;;;;;;;;;;;24.33;68.24;94870.72;5093497;28;1052;-56
2023/07/20 05:40:47;;;;;;;;;;;;;;;24.37;68.52;94874.59;5093339;28;1906;-56
2023/07/20 05:43:14;;;;;;;;;;;;;;;24.47;66.21;94871.16;5095232;28;1024;-56
2023/07/20 05:45:43;;;;;;;;;;;;;;;24.39;68.28;94880.63;5097791;28;992;-56
2023/07/20 05:48:13;;;;;;;;;;;;;;;24.52;68.38;94882.19;5097455;28;1041;-56
2023/07/20 05:50:43;;;;;;;;;;;;;;;24.72;67.01;94874.22;5097534;28;1057;-56
2023/07/20 05:53:09;;;;;;;;;;;;;;;24.83;67.15;94874.31;5097362;28;1051;-55
2023/07/20 05:55:35;;;;;;;;;;;;;;;25.04;65.70;94881.66;5097323;28;1096;-55
2023/07/20 05:58:01;;;;;;;;;;;;;;;25.10;67.26;94879.81;5096173;28;1005;-55
2023/07/20 06:00:27;;;;;;;;;;;;;;;25.20;66.62;94876.34;5097175;28;1988;-55
2023/07/20 06:02:54;;;;;;;;;;;;;;;25.24;64.14;94877.50;5097343;28;1044;-55
2023/07/20 06:05:23;;;;;;;;;;;;;;;25.31;65.29;94880.84;5097205;28;1044;-55
2023/07/20 06:07:50;;;;;;;;;;;;;;;25.47;66.85;94874.41;5097047;28;988;-55
2023/07/20 06:10:16;;;;;;;;;;;;;;;25.52;65.61;94868.16;5097145;28;1056;-55
2023/07/20 06:12:42;;;;;;;;;;;;;;;25.28;64.98;94863.03;5097234;28;1040;-55
2023/07/20 06:15:25;;;;;;;;;;;;;;;25.47;65.58;94873.59;5095728;28;1120;-55
2023/07/20 06:17:51;;;;;;;;;;;;;;;25.56;65.26;94857.50;5097002;28;1045;-55
2023/07/20 06:20:17;;;;;;;;;;;;;;;25.69;65.76;94863.34;5096614;28;1986;-55
2023/07/20 06:22:44;;;;;;;;;;;;;;;25.63;66.37;94855.34;5095651;28;1029;-55
2023/07/20 06:25:10;;;;;;;;;;;;;;;25.44;64.55;94853.06;5096978;28;1020;-55
2023/07/20 06:27:36;;;;;;;;;;;;;;;25.50;65.25;94852.00;5096718;28;1104;-55
2023/07/20 06:30:03;;;;;;;;;;;;;;;25.43;64.98;94848.66;5095586;28;997;-55
2023/07/20 06:32:29;;;;;;;;;;;;;;;25.65;64.57;94844.97;5096627;28;1096;-55
2023/07/20 06:34:55;;;;;;;;;;;;;;;25.97;63.89;94852.31;5096559;28;1048;-54
2023/07/20 06:37:21;;;;;;;;;;;;;;;26.14;63.46;94855.69;5095582;28;977;-55
2023/07/20 06:39:47;;;;;;;;;;;;;;;26.38;61.94;94866.25;5096680;28;1121;-55
2023/07/20 06:42:13;;;;;;;;;;;;;;;26.14;64.56;94865.84;5096057;28;1983;-55
2023/07/20 06:44:40;;;;;;;;;;;;;;;25.98;67.21;94882.19;5094601;28;1037;-55
2023/07/20 06:47:07;;;;;;;;;;;;;;;26.22;66.85;94893.56;5095370;28;1033;-55
2023/07/20 06:49:33;;;;;;;;;;;;;;;26.20;64.15;94897.66;5095932;28;1032;-55
2023/07/20 06:51:59;;;;;;;;;;;;;;;25.87;66.28;94892.22;5095382;28;965;-55
2023/07/20 06:54:25;;;;;;;;;;;;;;;25.75;66.91;94893.50;5095241;28;1045;-55
2023/07/20 06:56:51;;;;;;;;;;;;;;;25.67;68.72;94897.56;5096238;28;1056;-56
2023/07/20 06:59:17;;;;;;;;;;;;;;;25.78;66.82;94893.81;5096149;28;1013;-55
2023/07/20 07:01:43;;;;;;;;;;;;;;;25.76;67.87;94895.97;5095207;28;1914;-55
2023/07/20 07:04:09;;;;;;;;;;;;;;;25.68;66.97;94894.53;5095852;28;965;-55
2023/07/20 07:06:36;;;;;;;;;;;;;;;25.60;65.62;94896.97;5095883;28;1048;-56
2023/07/20 07:09:03;;;;;;;;;;;;;;;25.77;65.11;94885.88;5095865;28;1052;-55
2023/07/20 07:11:29;;;;;;;;;;;;;;;26.21;64.47;94880.94;5095986;28;968;-55
2023/07/20 07:13:55;;;;;;;;;;;;;;;26.43;62.98;94885.44;5095776;28;1029;-56
2023/07/20 07:16:21;;;;;;;;;;;;;;;26.70;62.47;94888.03;5095741;28;992;-55
2023/07/20 07:18:47;;;;;;;;;;;;;;;26.76;63.97;94899.84;5095675;28;1045;-55
2023/07/20 07:21:13;;;;;;;;;;;;;;;26.59;65.17;94909.09;5095336;28;2055;-56
2023/07/20 07:23:39;;;;;;;;;;;;;;;26.64;65.93;94914.63;5095813;28;1033;-56
2023/07/20 07:26:05;;;;;;;;;;;;;;;26.99;63.43;94917.75;5095634;28;1001;-56
2023/07/20 07:28:34;;;;;;;;;;;;;;;27.24;63.44;94917.81;5095576;28;948;-56
2023/07/20 07:31:00;;;;;;;;;;;;;;;27.40;63.04;94913.19;5095425;28;998;-56
2023/07/20 07:33:26;;;;;;;;;;;;;;;27.44;60.69;94917.03;5095301;28;920;-55
2023/07/20 07:35:52;;;;;;;;;;;;;;;27.56;62.29;94914.03;5095258;28;1044;-55
2023/07/20 07:38:19;;;;;;;;;;;;;;;27.69;61.99;94920.09;5095221;28;1113;-55
2023/07/20 07:40:45;;;;;;;;;;;;;;;27.94;61.91;94917.34;5095148;28;1913;-56
2023/07/20 07:43:11;;;;;;;;;;;;;;;28.11;57.92;94905.25;5095330;28;1013;-56
2023/07/20 07:45:37;;;;;;;;;;;;;;;28.27;56.97;94887.63;5095173;28;1047;-56
2023/07/20 07:48:04;;;;;;;;;;;;;;;28.33;60.27;94888.44;5095022;28;1054;-56
2023/07/20 07:50:30;;;;;;;;;;;;;;;28.43;59.86;94874.63;5094984;28;1043;-56
2023/07/20 07:52:56;;;;;;;;;;;;;;;28.66;58.61;94875.94;5095161;28;1017;-56
2023/07/20 07:55:22;;;;;;;;;;;;;;;28.65;57.27;94852.31;5095335;28;1016;-56
2023/07/20 07:57:47;;;;;;;;;;;;;;;28.67;54.70;94852.03;5095011;28;1029;-56
2023/07/20 08:00:14;;;;;;;;;;;;;;;28.95;51.61;94858.75;5094827;28;1914;-55
2023/07/20 08:02:41;;;;;;;;;;;;;;;29.02;52.61;94851.00;5094856;28;1016;-56
2023/07/20 08:05:07;;;;;;;;;;;;;;;29.27;51.13;94862.97;5095292;28;1051;-56
2023/07/20 08:07:33;;;;;;;;;;;;;;;29.29;52.89;94871.75;5093765;28;1093;-56
2023/07/20 08:10:00;;;;;;;;;;;;;;;29.19;54.44;94873.47;5094820;28;973;-56
2023/07/20 08:12:26;;;;;;;;;;;;;;;29.42;53.15;94862.84;5094778;28;1000;-56
2023/07/20 08:14:53;;;;;;;;;;;;;;;29.47;53.20;94859.25;5094626;28;1088;-56
2023/07/20 08:17:19;;;;;;;;;;;;;;;29.65;50.42;94842.00;5094530;28;1229;-56
2023/07/20 08:19:46;;;;;;;;;;;;;;;29.74;52.44;94839.50;5094539;28;1314;-56
2023/07/20 08:22:12;;;;;;;;;;;;;;;29.67;52.38;94841.72;5094592;28;1956;-56
2023/07/20 08:24:41;;;;;;;;;;;;;;;29.74;49.75;94858.78;5094563;28;964;-56
2023/07/20 08:27:08;;;;;;;;;;;;;;;29.75;52.08;94850.22;5094808;28;976;-56
2023/07/20 08:29:34;;;;;;;;;;;;;;;29.90;51.30;94846.50;5094400;28;1043;-56
2023/07/20 08:32:01;;;;;;;;;;;;;;;30.10;51.57;94839.94;5094261;28;949;-56
2023/07/20 08:34:27;;;;;;;;;;;;;;;30.32;52.46;94841.41;5094203;28;1040;-56
2023/07/20 08:36:53;;;;;;;;;;;;;;;30.31;50.99;94853.50;5094335;28;1060;-55
2023/07/20 08:39:19;;;;;;;;;;;;;;;30.47;52.58;94851.44;5094328;28;1062;-56
2023/07/20 08:41:46;;;;;;;;;;;;;;;30.50;51.94;94848.88;5093932;28;1905;-56
2023/07/20 08:44:12;;;;;;;;;;;;;;;30.62;51.12;94844.88;5094026;28;1025;-56
2023/07/20 08:46:39;;;;;;;;;;;;;;;30.75;50.73;94855.19;5093978;28;1040;-56
2023/07/20 08:49:06;;;;;;;;;;;;;;;30.71;49.55;94843.94;5094217;28;972;-56
2023/07/20 08:51:32;;;;;;;;;;;;;;;30.83;51.24;94839.91;5094161;28;989;-56
2023/07/20 08:53:58;;;;;;;;;;;;;;;30.72;49.42;94848.34;5093873;28;1037;-56
2023/07/20 08:56:25;;;;;;;;;;;;;;;30.63;48.51;94846.53;5093984;28;961;-56
2023/07/20 08:58:52;;;;;;;;;;;;;;;30.64;47.35;94857.28;5093914;28;1043;-56
2023/07/20 09:01:19;;;;;;;;;;;;;;;30.73;47.07;94858.28;5093661;28;1910;-56
2023/07/20 09:03:46;;;;;;;;;;;;;;;30.66;48.33;94848.72;5094029;28;937;-56
2023/07/20 09:06:12;;;;;;;;;;;;;;;30.83;47.56;94860.09;5093925;28;965;-56
2023/07/20 09:08:39;;;;;;;;;;;;;;;31.03;48.62;94852.66;5093648;28;1112;-56
2023/07/20 09:11:05;;;;;;;;;;;;;;;31.11;48.71;94861.09;5093642;28;1053;-56
2023/07/20 09:13:32;;;;;;;;;;;;;;;31.28;47.95;94854.22;5093629;28;1005;-56
2023/07/20 09:15:58;;;;;;;;;;;;;;;31.32;46.08;94845.06;5093549;28;1036;-56
2023/07/20 09:18:28;;;;;;;;;;;;;;;31.63;47.15;94833.53;5093316;28;969;-56
2023/07/20 09:21:03;;;;;;;;;;;;;;;31.77;43.85;94835.50;5093377;28;1938;-56
2023/07/20 09:23:33;;;;;;;;;;;;;;;31.53;47.09;94825.41;5092344;28;1084;-56
2023/07/20 09:26:00;;;;;;;;;;;;;;;31.61;46.85;94835.78;5093451;28;1034;-56
2023/07/20 09:28:26;;;;;;;;;;;;;;;31.58;47.75;94827.25;5093495;28;1041;-56
2023/07/20 09:30:54;;;;;;;;;;;;;;;31.48;47.95;94825.50;5093053;28;1033;-56
2023/07/20 09:33:24;;;;;;;;;;;;;;;31.55;46.46;94823.19;5093483;28;1089;-55
2023/07/20 09:35:50;;;;;;;;;;;;;;;31.69;46.81;94823.22;5093477;28;1021;-55
2023/07/20 09:38:16;;;;;;;;;;;;;;;31.89;45.90;94825.63;5092448;28;989;-55
2023/07/20 09:40:42;;;;;;;;;;;;;;;31.91;47.62;94822.56;5093314;28;1997;-57
2023/07/20 09:43:09;;;;;;;;;;;;;;;31.91;45.89;94830.84;5093368;28;1029;-56
2023/07/20 09:45:39;;;;;;;;;;;;;;;31.73;44.40;94828.94;5093393;28;1268;-55
2023/07/20 09:48:09;;;;;;;;;;;;;;;31.66;45.99;94834.84;5093901;28;1048;-56
2023/07/20 09:51:01;;;;;;;;;;;;;;;31.68;45.28;94827.91;5092504;28;2569;-57
2023/07/20 09:53:28;;;;;;;;;;;;;;;31.89;45.19;94814.56;5090426;28;1193;-56
2023/07/20 09:55:54;;;;;;;;;;;;;;;32.18;44.20;94807.97;5093302;28;1017;-56
2023/07/20 09:58:21;;;;;;;;;;;;;;;31.95;46.22;94809.75;5093270;28;1104;-57
2023/07/20 10:00:50;;;;;;;;;;;;;;;31.91;47.88;94814.25;5093360;28;1910;-56
2023/07/20 10:03:18;;;;;;;;;;;;;;;31.77;45.61;94816.16;5093281;28;1029;-56
2023/07/20 10:05:47;;;;;;;;;;;;;;;31.90;45.16;94812.59;5093261;28;1035;-57
2023/07/20 10:08:16;;;;;;;;;;;;;;;31.88;43.11;94820.38;5093204;28;1005;-56
2023/07/20 10:10:45;;;;;;;;;;;;;;;32.00;44.07;94817.94;5090521;28;1355;-57
2023/07/20 10:13:16;;;;;;;;;;;;;;;31.99;44.23;94821.03;5092812;28;1037;-57
2023/07/20 10:16:01;;;;;;;;;;;;;;;31.95;44.36;94819.97;5093269;28;1032;-57
2023/07/20 10:18:34;;;;;;;;;;;;;;;32.26;45.09;94809.19;5074261;28;2698;-57
2023/07/20 10:21:19;;;;;;;;;;;;;;;32.49;44.14;94813.69;2657297;28;10002001;-57
2023/07/20 10:23:46;;;;;;;;;;;;;;;32.51;45.82;94805.06;2598810;28;10001143;-57
2023/07/20 10:26:13;;;;;;;;;;;;;;;32.48;46.21;94803.75;4993489;28;1212;-57
2023/07/20 10:28:39;;;;;;;;;;;;;;;32.56;46.05;94801.41;4993123;28;2572;-56
2023/07/20 10:31:09;;;;;;;;;;;;;;;32.52;44.46;94811.41;5006240;28;2834;-57
2023/07/20 10:33:37;;;;;;;;;;;;;;;32.55;44.89;94802.50;4996352;28;1501;-57
2023/07/20 10:36:06;;;;;;;;;;;;;;;32.51;45.57;94795.97;5010487;28;2556;-57
2023/07/20 10:38:40;;;;;;;;;;;;;;;32.24;44.34;94795.66;5016591;28;1028;-57
2023/07/20 10:41:21;;;;;;;;;;;;;;;32.22;43.87;94794.34;5016427;28;2003;-57
2023/07/20 10:43:48;;;;;;;;;;;;;;;32.18;46.31;94783.06;4997344;28;1313;-57
2023/07/20 10:46:14;;;;;;;;;;;;;;;32.25;47.45;94785.41;4996704;28;1191;-59
2023/07/20 10:48:59;;;;;;;;;;;;;;;32.25;46.96;94777.97;5014021;28;2580;-57
2023/07/20 10:51:25;;;;;;;;;;;;;;;32.29;49.13;94764.34;5016146;28;1128;-57
2023/07/20 10:53:53;;;;;;;;;;;;;;;32.11;44.29;94766.06;4997139;28;1744;-57
2023/07/20 10:56:20;;;;;;;;;;;;;;;32.34;45.23;94766.97;4996497;28;1106;-57
2023/07/20 10:58:46;;;;;;;;;;;;;;;32.64;46.33;94764.72;5000503;28;1245;-57
2023/07/20 11:01:18;;;;;;;;;;;;;;;32.60;44.96;94758.16;5004613;28;1914;-58
2023/07/20 11:03:50;;;;;;;;;;;;;;;32.68;46.71;94749.94;5003516;28;2404;-57
2023/07/20 11:06:25;;;;;;;;;;;;;;;32.69;44.24;94748.00;5015934;28;1159;-58
2023/07/20 11:09:14;;;;;;;;;;;;;;;32.65;47.77;94733.13;2339862;28;10001999;-57
2023/07/20 11:14:21;;;;;;;;;;;;;;;32.35;47.89;94727.13;5261539;23;1801;-57
2023/07/20 11:16:48;;;;;;;;;;;;;;;32.53;47.76;94727.31;4918970;29;1093;-57
2023/07/20 11:19:15;;;;;;;;;;;;;;;32.60;45.19;94739.59;4916210;29;2748;-56
2023/07/20 11:21:42;;;;;;;;;;;;;;;32.70;46.17;94737.75;4914681;29;2205;-57
2023/07/20 11:24:09;;;;;;;;;;;;;;;32.88;45.23;94734.00;4918982;29;2636;-57
2023/07/20 11:26:42;;;;;;;;;;;;;;;33.08;47.87;94724.38;4916583;29;1894;-57
2023/07/20 11:29:08;;;;;;;;;;;;;;;33.02;45.79;94737.53;4909180;29;1276;-57
2023/07/20 11:37:41;;;;;;;;;;;;;;;33.34;45.31;94715.47;5299393;23;2949;-57
2023/07/20 11:40:09;;;;;;;;;;;;;;;33.15;44.08;94708.19;4937197;29;2616;-58
2023/07/20 11:42:35;;;;;;;;;;;;;;;33.13;43.50;94715.19;4937748;29;1629;-57
2023/07/20 11:45:06;;;;;;;;;;;;;;;33.10;44.31;94702.72;4937598;29;2360;-57
2023/07/20 11:47:32;;;;;;;;;;;;;;;33.30;43.29;94700.63;4937790;29;982;-57
2023/07/20 11:50:02;;;;;;;;;;;;;;;33.37;43.87;94703.75;4937520;29;1755;-57
2023/07/20 11:52:28;;;;;;;;;;;;;;;33.55;43.04;94697.16;4935126;29;2376;-57
2023/07/20 11:54:55;;;;;;;;;;;;;;;33.71;43.96;94697.59;4931679;29;1691;-57
2023/07/20 11:57:22;;;;;;;;;;;;;;;33.53;42.07;94693.09;4936385;29;1477;-57
2023/07/20 11:59:58;;;;;;;;;;;;;;;33.53;44.35;94682.00;4937454;29;2840;-58
2023/07/20 12:02:26;;;;;;;;;;;;;;;33.58;42.47;94685.47;4925962;29;1902;-58
2023/07/20 12:04:53;;;;;;;;;;;;;;;33.49;45.22;94679.06;4920035;29;1507;-58
2023/07/20 12:07:19;;;;;;;;;;;;;;;33.41;44.35;94675.09;4928488;29;1509;-58
2023/07/20 12:10:02;;;;;;;;;;;;;;;33.39;44.45;94668.22;4925868;29;2690;-57
2023/07/20 12:12:30;;;;;;;;;;;;;;;33.35;44.92;94667.22;4937182;29;1327;-58
2023/07/20 12:15:11;;;;;;;;;;;;;;;33.31;43.11;94661.50;4937164;29;1102;-58
2023/07/20 12:17:42;;;;;;;;;;;;;;;33.29;45.68;94660.19;4937357;29;1085;-57
2023/07/20 12:20:08;;;;;;;;;;;;;;;33.39;42.69;94671.00;4934803;29;3469;-57
2023/07/20 12:22:43;;;;;;;;;;;;;;;33.47;46.52;94656.38;4936627;29;1912;-57
2023/07/20 12:25:09;;;;;;;;;;;;;;;33.71;45.92;94652.44;4936872;29;1238;-57
2023/07/20 12:27:38;;;;;;;;;;;;;;;33.74;43.71;94652.63;4936758;29;994;-57
2023/07/20 12:30:05;;;;;;;;;;;;;;;33.91;45.12;94649.09;4922028;29;1146;-57
2023/07/20 12:32:31;;;;;;;;;;;;;;;33.79;44.23;94649.72;4917996;29;1035;-57
2023/07/20 12:34:57;;;;;;;;;;;;;;;33.67;45.38;94640.34;4917667;29;1079;-57
2023/07/20 12:37:23;;;;;;;;;;;;;;;33.76;45.11;94642.03;4922637;29;1162;-59
2023/07/20 12:39:49;;;;;;;;;;;;;;;33.69;47.47;94629.75;4936709;29;1042;-58
2023/07/20 12:42:17;;;;;;;;;;;;;;;33.62;45.46;94638.53;4936390;29;1975;-57
2023/07/20 12:44:43;;;;;;;;;;;;;;;33.58;44.44;94637.50;4936062;29;1631;-57
2023/07/20 12:47:09;;;;;;;;;;;;;;;33.63;46.17;94629.06;4936113;29;3074;-57
2023/07/20 12:49:35;;;;;;;;;;;;;;;33.76;45.79;94632.91;4936309;29;1042;-57
2023/07/20 12:52:01;;;;;;;;;;;;;;;33.78;44.75;94623.09;4950801;29;1022;-57
2023/07/20 12:54:27;;;;;;;;;;;;;;;33.99;43.75;94630.84;4948928;29;1176;-57
2023/07/20 12:56:53;;;;;;;;;;;;;;;33.97;43.94;94631.16;4919307;29;984;-57
2023/07/20 12:59:19;;;;;;;;;;;;;;;33.77;43.82;94620.66;4936478;29;1018;-57
2023/07/20 13:01:45;;;;;;;;;;;;;;;33.62;46.37;94616.34;4936085;29;1931;-58
2023/07/20 13:04:11;;;;;;;;;;;;;;;33.53;44.98;94619.09;4936104;29;1027;-57
2023/07/20 13:06:37;;;;;;;;;;;;;;;33.65;45.88;94618.50;4936281;29;1010;-57